createdAt,value
2018-12-11T00:00:48.245Z,93.13
2018-12-11T00:01:53.739Z,93.04
2018-12-11T00:02:59.245Z,92.75
2018-12-11T00:04:04.750Z,92.94
2018-12-11T00:05:10.257Z,93.04
2018-12-11T00:06:15.778Z,92.85
2018-12-11T00:07:21.273Z,93.23
2018-12-11T00:08:26.786Z,92.94
2018-12-11T00:09:32.281Z,93.23
2018-12-11T00:10:37.797Z,93.23
2018-12-11T00:11:43.301Z,93.41
2018-12-11T00:12:48.812Z,93.41
2018-12-11T00:13:54.315Z,93.04
2018-12-11T00:14:59.816Z,93.04
2018-12-11T00:16:05.331Z,93.13
2018-12-11T00:17:10.861Z,93.08
2018-12-11T00:18:16.348Z,93.32
2018-12-11T00:19:21.851Z,93.08
2018-12-11T00:20:27.586Z,93.08
2018-12-11T00:21:32.872Z,92.90
2018-12-11T00:22:38.371Z,93.18
2018-12-11T00:23:43.871Z,93.37
2018-12-11T00:24:49.386Z,93.37
2018-12-11T00:25:54.883Z,93.37
2018-12-11T00:27:00.398Z,93.27
2018-12-11T00:28:05.914Z,92.71
2018-12-11T00:29:11.404Z,92.61
2018-12-11T00:30:16.989Z,92.99
2018-12-11T00:31:22.424Z,93.08
2018-12-11T00:32:27.933Z,92.66
2018-12-11T00:33:33.442Z,92.66
2018-12-11T00:34:38.947Z,92.71
2018-12-11T00:35:44.443Z,93.13
2018-12-11T00:36:49.962Z,93.18
2018-12-11T00:37:55.460Z,92.71
2018-12-11T00:39:00.968Z,92.47
2018-12-11T00:40:06.473Z,92.47
2018-12-11T00:41:11.988Z,92.37
2018-12-11T00:42:17.489Z,92.47
2018-12-11T00:43:22.990Z,92.85
2018-12-11T00:44:28.501Z,92.37
2018-12-11T00:45:34.009Z,92.85
2018-12-11T00:46:39.519Z,92.94
2018-12-11T00:47:45.029Z,92.66
2018-12-11T00:48:50.529Z,92.18
2018-12-11T00:49:56.043Z,92.85
2018-12-11T00:51:01.544Z,93.41
2018-12-11T00:52:07.092Z,92.66
2018-12-11T00:53:12.557Z,93.23
2018-12-11T00:54:18.071Z,93.04
2018-12-11T00:55:23.570Z,93.32
2018-12-11T00:56:29.078Z,93.04
2018-12-11T00:57:34.584Z,93.13
2018-12-11T00:58:40.090Z,93.23
2018-12-11T00:59:45.597Z,92.85
2018-12-11T01:00:51.112Z,92.94
2018-12-11T01:01:56.605Z,93.04
2018-12-11T01:03:02.118Z,92.94
2018-12-11T01:04:07.626Z,92.94
2018-12-11T01:05:13.129Z,93.23
2018-12-11T01:06:18.634Z,93.04
2018-12-11T01:07:24.143Z,92.47
2018-12-11T01:08:29.641Z,93.04
2018-12-11T01:09:35.159Z,92.94
2018-12-11T01:10:40.670Z,92.94
2018-12-11T01:11:46.174Z,93.04
2018-12-11T01:12:51.684Z,93.23
2018-12-11T01:13:57.184Z,93.32
2018-12-11T01:15:02.699Z,93.23
2018-12-11T01:16:08.196Z,93.04
2018-12-11T01:17:13.712Z,93.04
2018-12-11T01:18:19.215Z,93.04
2018-12-11T01:19:24.715Z,92.56
2018-12-11T01:20:30.226Z,92.37
2018-12-11T01:21:35.733Z,92.56
2018-12-11T01:22:41.244Z,92.47
2018-12-11T01:23:46.744Z,92.66
2018-12-11T01:24:52.252Z,92.94
2018-12-11T01:25:57.756Z,93.13
2018-12-11T01:27:03.270Z,93.04
2018-12-11T01:28:08.780Z,92.85
2018-12-11T01:29:14.275Z,93.23
2018-12-11T01:30:19.786Z,92.56
2018-12-11T01:31:25.292Z,93.13
2018-12-11T01:32:30.796Z,92.66
2018-12-11T01:33:36.305Z,92.85
2018-12-11T01:34:41.812Z,92.28
2018-12-11T01:35:47.315Z,92.66
2018-12-11T01:36:52.829Z,93.23
2018-12-11T01:37:58.337Z,93.04
2018-12-11T01:39:03.837Z,93.04
2018-12-11T01:40:09.348Z,93.04
2018-12-11T01:41:14.847Z,92.47
2018-12-11T01:42:20.354Z,93.23
2018-12-11T01:43:25.863Z,92.56
2018-12-11T01:44:31.377Z,92.75
2018-12-11T01:45:36.877Z,92.18
2018-12-11T01:46:42.383Z,92.47
2018-12-11T01:47:47.890Z,92.66
2018-12-11T01:48:53.401Z,93.13
2018-12-11T01:49:58.913Z,93.41
2018-12-11T01:51:04.417Z,93.23
2018-12-11T01:52:09.928Z,92.94
2018-12-11T01:53:15.421Z,92.66
2018-12-11T01:54:20.933Z,92.37
2018-12-11T01:55:26.435Z,92.75
2018-12-11T01:56:31.946Z,92.37
2018-12-11T01:57:37.452Z,92.66
2018-12-11T01:58:42.954Z,92.28
2018-12-11T01:59:48.462Z,92.85
2018-12-11T02:00:53.975Z,92.56
2018-12-11T02:01:59.481Z,93.23
2018-12-11T02:03:04.983Z,93.04
2018-12-11T02:04:10.487Z,93.13
2018-12-11T02:05:16.001Z,93.23
2018-12-11T02:06:21.508Z,93.23
2018-12-11T02:07:27.011Z,92.94
2018-12-11T02:08:32.519Z,93.23
2018-12-11T02:09:38.026Z,93.13
2018-12-11T02:10:43.530Z,93.13
2018-12-11T02:11:49.052Z,93.41
2018-12-11T02:12:54.546Z,93.32
2018-12-11T02:14:00.048Z,93.60
2018-12-11T02:15:05.558Z,93.60
2018-12-11T02:16:11.074Z,93.99
2018-12-11T02:17:16.571Z,94.08
2018-12-11T02:18:22.076Z,93.89
2018-12-11T02:19:27.583Z,93.60
2018-12-11T02:20:33.089Z,93.89
2018-12-11T02:21:41.993Z,94.08
2018-12-11T02:22:44.111Z,94.18
2018-12-11T02:23:49.610Z,94.18
2018-12-11T02:24:55.119Z,94.18
2018-12-11T02:26:00.630Z,94.08
2018-12-11T02:27:06.128Z,93.70
2018-12-11T02:28:11.640Z,93.89
2018-12-11T02:29:17.148Z,93.99
2018-12-11T02:30:22.657Z,94.08
2018-12-11T02:31:28.165Z,93.60
2018-12-11T02:32:33.663Z,93.99
2018-12-11T02:33:39.171Z,93.70
2018-12-11T02:34:44.673Z,94.18
2018-12-11T02:35:50.186Z,93.80
2018-12-11T02:36:55.690Z,93.89
2018-12-11T02:38:01.191Z,93.32
2018-12-11T02:39:06.700Z,93.51
2018-12-11T02:40:12.209Z,93.60
2018-12-11T02:41:17.721Z,93.41
2018-12-11T02:42:23.220Z,93.80
2018-12-11T02:43:28.729Z,93.89
2018-12-11T02:44:34.231Z,94.18
2018-12-11T02:45:39.751Z,93.80
2018-12-11T02:46:45.251Z,94.08
2018-12-11T02:47:50.755Z,94.18
2018-12-11T02:48:56.264Z,94.27
2018-12-11T02:50:01.775Z,93.89
2018-12-11T02:51:07.276Z,94.18
2018-12-11T02:52:12.782Z,93.70
2018-12-11T02:53:18.292Z,93.80
2018-12-11T02:54:23.795Z,93.41
2018-12-11T02:55:29.306Z,93.32
2018-12-11T02:56:34.810Z,93.51
2018-12-11T02:57:40.316Z,93.32
2018-12-11T02:58:45.822Z,93.41
2018-12-11T02:59:51.334Z,93.51
2018-12-11T03:00:56.835Z,93.51
2018-12-11T03:02:02.343Z,93.04
2018-12-11T03:03:07.858Z,93.13
2018-12-11T03:04:13.353Z,93.13
2018-12-11T03:05:18.883Z,93.41
2018-12-11T03:06:24.372Z,93.60
2018-12-11T03:07:29.886Z,93.32
2018-12-11T03:08:35.381Z,93.51
2018-12-11T03:09:40.891Z,93.41
2018-12-11T03:10:46.393Z,93.70
2018-12-11T03:11:51.905Z,92.94
2018-12-11T03:12:57.410Z,93.23
2018-12-11T03:14:02.924Z,92.94
2018-12-11T03:15:08.426Z,92.94
2018-12-11T03:16:13.935Z,93.23
2018-12-11T03:17:19.435Z,93.13
2018-12-11T03:18:24.939Z,93.32
2018-12-11T03:19:30.458Z,93.41
2018-12-11T03:20:35.954Z,93.80
2018-12-11T03:21:41.461Z,93.99
2018-12-11T03:22:46.971Z,94.27
2018-12-11T03:23:52.477Z,93.89
2018-12-11T03:24:57.983Z,93.99
2018-12-11T03:26:03.491Z,93.41
2018-12-11T03:27:08.999Z,93.60
2018-12-11T03:28:14.503Z,93.51
2018-12-11T03:29:20.005Z,93.80
2018-12-11T03:30:25.523Z,93.89
2018-12-11T03:31:31.025Z,93.70
2018-12-11T03:32:36.544Z,94.18
2018-12-11T03:33:42.038Z,93.89
2018-12-11T03:34:47.576Z,93.89
2018-12-11T03:35:53.057Z,93.99
2018-12-11T03:36:58.557Z,93.60
2018-12-11T03:38:04.063Z,93.99
2018-12-11T03:39:09.578Z,93.80
2018-12-11T03:40:15.080Z,93.32
2018-12-11T03:41:20.574Z,93.99
2018-12-11T03:42:26.090Z,93.70
2018-12-11T03:43:31.592Z,94.18
2018-12-11T03:44:37.099Z,93.60
2018-12-11T03:45:42.611Z,93.60
2018-12-11T03:46:48.117Z,93.89
2018-12-11T03:47:53.623Z,93.89
2018-12-11T03:48:59.150Z,93.99
2018-12-11T03:50:04.636Z,93.13
2018-12-11T03:51:10.139Z,92.85
2018-12-11T03:52:21.413Z,93.13
2018-12-11T03:53:21.157Z,93.13
2018-12-11T03:54:26.673Z,93.41
2018-12-11T03:55:32.191Z,93.80
2018-12-11T03:56:37.677Z,93.51
2018-12-11T03:57:43.193Z,93.04
2018-12-11T03:58:48.692Z,93.60
2018-12-11T03:59:54.202Z,92.85
2018-12-11T04:00:59.702Z,93.32
2018-12-11T04:02:05.206Z,93.04
2018-12-11T04:03:10.719Z,93.32
2018-12-11T04:04:16.224Z,93.60
2018-12-11T04:05:21.737Z,93.32
2018-12-11T04:06:27.236Z,93.04
2018-12-11T04:07:32.751Z,93.70
2018-12-11T04:08:38.252Z,93.13
2018-12-11T04:09:43.757Z,93.04
2018-12-11T04:10:49.263Z,93.04
2018-12-11T04:11:54.766Z,93.13
2018-12-11T04:13:00.276Z,92.94
2018-12-11T04:14:05.790Z,93.23
2018-12-11T04:15:11.295Z,93.13
2018-12-11T04:16:16.795Z,93.18
2018-12-11T04:17:22.300Z,92.99
2018-12-11T04:18:27.820Z,93.41
2018-12-11T04:19:33.312Z,93.65
2018-12-11T04:20:38.823Z,93.46
2018-12-11T04:21:44.332Z,93.80
2018-12-11T04:22:49.832Z,93.65
2018-12-11T04:23:55.355Z,93.65
2018-12-11T04:25:00.852Z,93.27
2018-12-11T04:26:06.361Z,93.37
2018-12-11T04:27:11.863Z,93.27
2018-12-11T04:28:17.368Z,93.08
2018-12-11T04:29:22.886Z,92.23
2018-12-11T04:30:28.377Z,92.66
2018-12-11T04:31:33.907Z,92.85
2018-12-11T04:32:39.402Z,92.94
2018-12-11T04:33:44.908Z,93.41
2018-12-11T04:34:50.415Z,93.23
2018-12-11T04:35:55.923Z,92.94
2018-12-11T04:37:01.423Z,92.94
2018-12-11T04:38:06.935Z,92.94
2018-12-11T04:39:12.440Z,93.13
2018-12-11T04:40:17.944Z,93.13
2018-12-11T04:41:23.505Z,92.66
2018-12-11T04:42:28.959Z,92.85
2018-12-11T04:43:34.469Z,92.94
2018-12-11T04:44:39.973Z,93.51
2018-12-11T04:45:45.479Z,93.41
2018-12-11T04:46:50.987Z,93.32
2018-12-11T04:47:56.488Z,93.46
2018-12-11T04:49:01.997Z,94.13
2018-12-11T04:50:07.508Z,93.23
2018-12-11T04:51:13.010Z,93.32
2018-12-11T04:52:18.522Z,93.41
2018-12-11T04:53:24.022Z,93.41
2018-12-11T04:54:29.528Z,93.04
2018-12-11T04:55:35.043Z,93.04
2018-12-11T04:56:40.606Z,93.23
2018-12-11T04:57:46.055Z,92.66
2018-12-11T04:58:51.564Z,93.08
2018-12-11T04:59:57.065Z,92.66
2018-12-11T05:01:02.578Z,92.37
2018-12-11T05:02:08.079Z,92.66
2018-12-11T05:03:13.586Z,92.28
2018-12-11T05:04:19.091Z,92.32
2018-12-11T05:05:24.597Z,92.56
2018-12-11T05:06:30.108Z,92.28
2018-12-11T05:07:35.614Z,92.09
2018-12-11T05:08:41.120Z,92.37
2018-12-11T05:09:46.629Z,92.18
2018-12-11T05:10:52.134Z,91.89
2018-12-11T05:11:57.650Z,92.18
2018-12-11T05:13:03.148Z,92.47
2018-12-11T05:14:08.650Z,92.28
2018-12-11T05:15:14.158Z,92.37
2018-12-11T05:16:19.667Z,92.56
2018-12-11T05:17:25.172Z,92.37
2018-12-11T05:18:30.690Z,92.18
2018-12-11T05:19:36.194Z,92.37
2018-12-11T05:20:41.696Z,92.28
2018-12-11T05:21:47.201Z,92.56
2018-12-11T05:22:52.704Z,92.28
2018-12-11T05:23:58.215Z,92.09
2018-12-11T05:25:03.727Z,92.09
2018-12-11T05:26:09.240Z,92.37
2018-12-11T05:27:14.733Z,92.56
2018-12-11T05:28:20.256Z,93.13
2018-12-11T05:29:25.745Z,93.23
2018-12-11T05:30:31.254Z,93.13
2018-12-11T05:31:36.759Z,92.56
2018-12-11T05:32:42.279Z,92.47
2018-12-11T05:33:47.776Z,92.37
2018-12-11T05:34:53.282Z,92.75
2018-12-11T05:35:58.785Z,91.71
2018-12-11T05:37:04.295Z,91.89
2018-12-11T05:38:09.805Z,91.89
2018-12-11T05:39:15.306Z,91.71
2018-12-11T05:40:20.812Z,91.52
2018-12-11T05:41:26.318Z,91.99
2018-12-11T05:42:31.826Z,91.80
2018-12-11T05:43:37.344Z,91.99
2018-12-11T05:44:42.852Z,91.33
2018-12-11T05:45:48.346Z,91.33
2018-12-11T05:46:53.851Z,91.52
2018-12-11T05:47:59.357Z,91.52
2018-12-11T05:49:04.870Z,91.24
2018-12-11T05:50:10.372Z,91.24
2018-12-11T05:51:15.881Z,91.89
2018-12-11T05:52:21.385Z,91.99
2018-12-11T05:53:27.413Z,91.71
2018-12-11T05:54:32.429Z,91.61
2018-12-11T05:55:37.916Z,92.09
2018-12-11T05:56:43.413Z,92.09
2018-12-11T05:57:48.938Z,92.37
2018-12-11T05:58:54.425Z,92.28
2018-12-11T05:59:59.931Z,92.28
2018-12-11T06:01:05.443Z,92.47
2018-12-11T06:02:10.944Z,92.56
2018-12-11T06:03:16.460Z,92.94
2018-12-11T06:04:21.960Z,93.41
2018-12-11T06:05:27.463Z,92.94
2018-12-11T06:06:32.980Z,92.85
2018-12-11T06:07:38.482Z,93.04
2018-12-11T06:08:43.992Z,93.23
2018-12-11T06:09:49.494Z,92.66
2018-12-11T06:10:54.999Z,93.23
2018-12-11T06:12:00.513Z,93.13
2018-12-11T06:13:06.013Z,93.13
2018-12-11T06:14:11.523Z,92.94
2018-12-11T06:15:17.031Z,92.66
2018-12-11T06:16:22.553Z,93.13
2018-12-11T06:17:28.048Z,93.23
2018-12-11T06:18:33.544Z,93.13
2018-12-11T06:19:39.052Z,92.66
2018-12-11T06:20:44.563Z,92.66
2018-12-11T06:21:50.066Z,92.66
2018-12-11T06:22:55.571Z,92.75
2018-12-11T06:24:01.079Z,92.18
2018-12-11T06:25:06.591Z,92.66
2018-12-11T06:26:12.092Z,92.66
2018-12-11T06:27:17.599Z,92.28
2018-12-11T06:28:23.130Z,92.37
2018-12-11T06:29:28.631Z,92.75
2018-12-11T06:30:34.116Z,92.37
2018-12-11T06:31:39.626Z,92.28
2018-12-11T06:32:45.133Z,92.85
2018-12-11T06:33:50.644Z,92.37
2018-12-11T06:34:56.145Z,92.47
2018-12-11T06:36:01.654Z,92.85
2018-12-11T06:37:07.160Z,92.66
2018-12-11T06:38:12.664Z,92.56
2018-12-11T06:39:18.172Z,92.18
2018-12-11T06:40:23.682Z,92.28
2018-12-11T06:41:29.187Z,92.28
2018-12-11T06:42:34.695Z,92.56
2018-12-11T06:43:40.196Z,91.80
2018-12-11T06:44:45.712Z,92.09
2018-12-11T06:45:51.206Z,92.18
2018-12-11T06:46:56.714Z,92.47
2018-12-11T06:48:02.218Z,92.66
2018-12-11T06:49:07.737Z,92.66
2018-12-11T06:50:13.238Z,92.47
2018-12-11T06:51:18.744Z,92.66
2018-12-11T06:52:24.254Z,93.04
2018-12-11T06:53:29.776Z,92.94
2018-12-11T06:54:35.259Z,93.23
2018-12-11T06:55:40.767Z,93.13
2018-12-11T06:56:46.274Z,92.56
2018-12-11T06:57:51.782Z,92.28
2018-12-11T06:58:57.292Z,92.56
2018-12-11T07:00:02.795Z,92.75
2018-12-11T07:01:08.301Z,92.85
2018-12-11T07:02:13.812Z,92.66
2018-12-11T07:03:19.318Z,92.66
2018-12-11T07:04:24.822Z,93.13
2018-12-11T07:05:30.331Z,92.56
2018-12-11T07:06:35.832Z,92.47
2018-12-11T07:07:41.340Z,92.37
2018-12-11T07:08:46.849Z,92.37
2018-12-11T07:09:52.358Z,92.66
2018-12-11T07:10:57.862Z,93.13
2018-12-11T07:12:03.367Z,92.66
2018-12-11T07:13:08.873Z,92.85
2018-12-11T07:14:14.377Z,92.28
2018-12-11T07:15:19.892Z,92.66
2018-12-11T07:16:25.390Z,92.47
2018-12-11T07:17:30.901Z,92.18
2018-12-11T07:18:36.409Z,92.47
2018-12-11T07:19:41.921Z,92.47
2018-12-11T07:20:47.428Z,92.28
2018-12-11T07:21:52.929Z,92.37
2018-12-11T07:22:58.432Z,92.37
2018-12-11T07:24:03.945Z,92.66
2018-12-11T07:25:09.457Z,91.99
2018-12-11T07:26:14.955Z,92.56
2018-12-11T07:27:20.461Z,92.56
2018-12-11T07:28:25.968Z,92.37
2018-12-11T07:29:31.477Z,92.32
2018-12-11T07:30:36.985Z,92.32
2018-12-11T07:31:42.503Z,91.94
2018-12-11T07:32:47.993Z,92.23
2018-12-11T07:33:53.508Z,92.13
2018-12-11T07:34:59.007Z,91.75
2018-12-11T07:36:04.513Z,91.61
2018-12-11T07:37:10.023Z,91.85
2018-12-11T07:38:15.525Z,91.94
2018-12-11T07:39:21.034Z,91.66
2018-12-11T07:40:26.542Z,91.85
2018-12-11T07:41:32.051Z,91.85
2018-12-11T07:42:37.559Z,91.94
2018-12-11T07:43:43.060Z,91.47
2018-12-11T07:44:48.582Z,91.28
2018-12-11T07:45:54.076Z,91.47
2018-12-11T07:46:59.584Z,91.85
2018-12-11T07:48:05.092Z,91.19
2018-12-11T07:49:10.594Z,91.38
2018-12-11T07:50:16.105Z,91.28
2018-12-11T07:51:21.614Z,91.38
2018-12-11T07:52:27.115Z,91.66
2018-12-11T07:53:32.623Z,90.99
2018-12-11T07:54:38.135Z,92.04
2018-12-11T07:55:43.646Z,91.75
2018-12-11T07:56:49.144Z,91.75
2018-12-11T07:57:54.652Z,92.04
2018-12-11T07:59:00.156Z,91.28
2018-12-11T08:00:05.661Z,91.56
2018-12-11T08:01:11.171Z,90.71
2018-12-11T08:02:16.679Z,91.75
2018-12-11T08:03:22.189Z,91.56
2018-12-11T08:04:27.691Z,91.28
2018-12-11T08:05:33.198Z,91.47
2018-12-11T08:06:38.707Z,90.80
2018-12-11T08:07:44.222Z,90.90
2018-12-11T08:08:49.717Z,90.90
2018-12-11T08:09:55.238Z,90.61
2018-12-11T08:11:00.732Z,91.09
2018-12-11T08:12:08.357Z,91.19
2018-12-11T08:13:11.750Z,91.19
2018-12-11T08:14:17.253Z,90.52
2018-12-11T08:15:22.758Z,90.71
2018-12-11T08:16:28.274Z,90.90
2018-12-11T08:17:33.775Z,90.80
2018-12-11T08:18:39.277Z,90.71
2018-12-11T08:19:44.789Z,91.47
2018-12-11T08:20:50.298Z,91.66
2018-12-11T08:21:55.809Z,90.61
2018-12-11T08:23:01.312Z,90.90
2018-12-11T08:24:06.816Z,91.09
2018-12-11T08:25:12.323Z,91.09
2018-12-11T08:26:17.833Z,90.71
2018-12-11T08:27:23.333Z,90.71
2018-12-11T08:28:28.857Z,91.47
2018-12-11T08:29:34.353Z,91.66
2018-12-11T08:30:39.854Z,90.99
2018-12-11T08:31:45.361Z,90.80
2018-12-11T08:32:50.870Z,90.99
2018-12-11T08:33:56.375Z,90.80
2018-12-11T08:35:01.891Z,90.71
2018-12-11T08:36:07.391Z,90.90
2018-12-11T08:37:12.897Z,90.99
2018-12-11T08:38:18.411Z,91.09
2018-12-11T08:39:23.911Z,90.80
2018-12-11T08:40:29.418Z,90.42
2018-12-11T08:41:34.928Z,90.23
2018-12-11T08:42:40.432Z,90.61
2018-12-11T08:43:45.936Z,90.52
2018-12-11T08:44:51.489Z,90.23
2018-12-11T08:45:56.956Z,90.52
2018-12-11T08:47:02.467Z,90.42
2018-12-11T08:48:07.965Z,90.42
2018-12-11T08:49:13.474Z,90.33
2018-12-11T08:50:18.985Z,90.33
2018-12-11T08:51:24.493Z,90.33
2018-12-11T08:52:29.994Z,90.42
2018-12-11T08:53:35.499Z,90.23
2018-12-11T08:54:41.010Z,90.33
2018-12-11T08:55:46.516Z,90.42
2018-12-11T08:56:52.021Z,90.33
2018-12-11T08:57:57.526Z,90.42
2018-12-11T08:59:06.522Z,90.23
2018-12-11T09:00:08.545Z,90.33
2018-12-11T09:01:14.049Z,90.33
2018-12-11T09:02:19.561Z,90.33
2018-12-11T09:03:25.063Z,90.14
2018-12-11T09:04:30.571Z,90.23
2018-12-11T09:05:36.081Z,90.33
2018-12-11T09:06:41.585Z,90.42
2018-12-11T09:07:47.093Z,90.33
2018-12-11T09:08:52.599Z,90.42
2018-12-11T09:09:58.102Z,90.23
2018-12-11T09:11:03.613Z,90.14
2018-12-11T09:12:09.126Z,90.23
2018-12-11T09:13:14.629Z,90.33
2018-12-11T09:14:20.132Z,90.42
2018-12-11T09:15:25.645Z,90.42
2018-12-11T09:16:31.146Z,90.42
2018-12-11T09:17:36.655Z,90.33
2018-12-11T09:18:42.162Z,90.23
2018-12-11T09:19:47.672Z,90.56
2018-12-11T09:20:53.183Z,90.19
2018-12-11T09:21:58.687Z,90.37
2018-12-11T09:23:04.192Z,90.47
2018-12-11T09:24:09.701Z,90.47
2018-12-11T09:25:15.211Z,90.28
2018-12-11T09:26:20.713Z,89.80
2018-12-11T09:27:26.220Z,88.95
2018-12-11T09:28:31.726Z,89.04
2018-12-11T09:29:37.244Z,88.67
2018-12-11T09:30:42.741Z,89.52
2018-12-11T09:31:48.246Z,89.23
2018-12-11T09:32:53.757Z,88.76
2018-12-11T09:33:59.264Z,88.85
2018-12-11T09:35:04.766Z,89.42
2018-12-11T09:36:10.277Z,88.95
2018-12-11T09:37:15.795Z,88.85
2018-12-11T09:38:21.301Z,90.00
2018-12-11T09:39:26.802Z,90.19
2018-12-11T09:40:32.309Z,89.90
2018-12-11T09:41:37.804Z,89.71
2018-12-11T09:42:43.317Z,89.80
2018-12-11T09:43:48.829Z,89.52
2018-12-11T09:44:54.333Z,89.23
2018-12-11T09:45:59.839Z,89.42
2018-12-11T09:47:05.347Z,89.61
2018-12-11T09:48:10.861Z,89.04
2018-12-11T09:49:16.374Z,88.90
2018-12-11T09:50:21.869Z,88.00
2018-12-11T09:51:27.380Z,88.52
2018-12-11T09:52:32.884Z,88.04
2018-12-11T09:53:38.393Z,88.23
2018-12-11T09:54:43.901Z,88.47
2018-12-11T09:55:49.409Z,88.57
2018-12-11T09:56:54.916Z,89.09
2018-12-11T09:58:00.424Z,89.18
2018-12-11T09:59:05.929Z,89.18
2018-12-11T10:00:11.441Z,88.28
2018-12-11T10:01:16.949Z,88.13
2018-12-11T10:02:22.450Z,88.00
2018-12-11T10:03:27.983Z,88.38
2018-12-11T10:04:33.477Z,88.33
2018-12-11T10:05:38.975Z,88.38
2018-12-11T10:06:44.482Z,88.19
2018-12-11T10:07:49.995Z,88.42
2018-12-11T10:08:55.499Z,88.33
2018-12-11T10:10:01.005Z,87.71
2018-12-11T10:11:06.514Z,87.85
2018-12-11T10:12:12.021Z,87.66
2018-12-11T10:13:17.532Z,87.24
2018-12-11T10:14:23.046Z,86.99
2018-12-11T10:15:28.555Z,87.47
2018-12-11T10:16:34.052Z,87.57
2018-12-11T10:17:39.559Z,87.95
2018-12-11T10:18:45.063Z,87.66
2018-12-11T10:19:50.572Z,87.85
2018-12-11T10:20:56.086Z,87.66
2018-12-11T10:22:01.594Z,87.09
2018-12-11T10:23:07.145Z,87.85
2018-12-11T10:24:12.607Z,88.33
2018-12-11T10:25:18.110Z,88.42
2018-12-11T10:26:23.618Z,87.76
2018-12-11T10:27:29.128Z,86.80
2018-12-11T10:28:34.630Z,87.24
2018-12-11T10:29:40.138Z,87.38
2018-12-11T10:30:45.647Z,86.80
2018-12-11T10:31:51.156Z,87.28
2018-12-11T10:32:56.663Z,87.85
2018-12-11T10:34:02.175Z,87.28
2018-12-11T10:35:07.695Z,87.19
2018-12-11T10:36:13.183Z,86.61
2018-12-11T10:37:18.694Z,86.80
2018-12-11T10:38:24.200Z,87.47
2018-12-11T10:39:29.714Z,86.90
2018-12-11T10:40:35.214Z,86.61
2018-12-11T10:41:40.757Z,86.71
2018-12-11T10:42:46.243Z,86.52
2018-12-11T10:43:51.736Z,86.90
2018-12-11T10:44:57.248Z,87.09
2018-12-11T10:46:02.760Z,86.61
2018-12-11T10:47:08.263Z,86.71
2018-12-11T10:48:13.779Z,86.71
2018-12-11T10:49:19.280Z,86.52
2018-12-11T10:50:24.785Z,86.90
2018-12-11T10:51:30.299Z,86.43
2018-12-11T10:52:35.797Z,85.86
2018-12-11T10:53:41.308Z,85.86
2018-12-11T10:54:46.821Z,86.24
2018-12-11T10:55:52.325Z,85.47
2018-12-11T10:56:57.829Z,85.86
2018-12-11T10:58:03.348Z,86.24
2018-12-11T10:59:10.277Z,86.71
2018-12-11T11:00:14.352Z,85.90
2018-12-11T11:01:19.869Z,85.42
2018-12-11T11:02:25.365Z,85.80
2018-12-11T11:03:30.876Z,86.47
2018-12-11T11:04:36.397Z,85.99
2018-12-11T11:05:41.900Z,85.90
2018-12-11T11:06:47.403Z,86.47
2018-12-11T11:07:52.909Z,86.09
2018-12-11T11:08:58.420Z,85.33
2018-12-11T11:10:03.933Z,85.04
2018-12-11T11:11:09.432Z,84.76
2018-12-11T11:12:14.939Z,83.81
2018-12-11T11:13:20.449Z,84.85
2018-12-11T11:14:25.970Z,84.66
2018-12-11T11:15:31.470Z,83.90
2018-12-11T11:16:36.967Z,83.33
2018-12-11T11:17:42.483Z,83.62
2018-12-11T11:18:48.009Z,83.23
2018-12-11T11:19:53.495Z,84.09
2018-12-11T11:20:59.001Z,83.23
2018-12-11T11:22:04.519Z,83.23
2018-12-11T11:23:10.020Z,83.62
2018-12-11T11:24:15.538Z,83.71
2018-12-11T11:25:21.040Z,83.62
2018-12-11T11:26:26.581Z,82.95
2018-12-11T11:27:32.096Z,83.81
2018-12-11T11:28:37.558Z,83.42
2018-12-11T11:29:43.067Z,83.90
2018-12-11T11:30:49.503Z,83.81
2018-12-11T11:31:54.084Z,83.42
2018-12-11T11:32:59.600Z,83.23
2018-12-11T11:34:05.105Z,83.33
2018-12-11T11:35:10.608Z,83.14
2018-12-11T11:36:16.118Z,84.00
2018-12-11T11:37:21.632Z,83.62
2018-12-11T11:38:27.140Z,83.04
2018-12-11T11:39:32.645Z,83.81
2018-12-11T11:40:38.158Z,83.23
2018-12-11T11:41:43.657Z,83.04
2018-12-11T11:42:49.168Z,83.33
2018-12-11T11:43:54.673Z,83.04
2018-12-11T11:45:00.203Z,83.62
2018-12-11T11:46:05.697Z,84.09
2018-12-11T11:47:11.201Z,83.90
2018-12-11T11:48:16.703Z,83.75
2018-12-11T11:49:22.212Z,83.52
2018-12-11T11:50:27.721Z,83.62
2018-12-11T11:51:33.230Z,83.90
2018-12-11T11:52:38.737Z,83.71
2018-12-11T11:53:44.242Z,84.09
2018-12-11T11:54:49.768Z,84.19
2018-12-11T11:55:55.257Z,83.90
2018-12-11T11:57:00.768Z,84.38
2018-12-11T11:58:06.288Z,84.56
2018-12-11T11:59:11.796Z,83.33
2018-12-11T12:00:17.306Z,83.33
2018-12-11T12:01:22.809Z,83.52
2018-12-11T12:02:33.418Z,83.62
2018-12-11T12:03:33.816Z,83.62
2018-12-11T12:04:39.331Z,83.56
2018-12-11T12:05:44.837Z,83.81
2018-12-11T12:06:50.345Z,82.86
2018-12-11T12:07:55.853Z,83.71
2018-12-11T12:09:01.362Z,83.65
2018-12-11T12:10:06.867Z,82.99
2018-12-11T12:11:12.378Z,82.51
2018-12-11T12:12:17.885Z,82.90
2018-12-11T12:13:23.392Z,82.90
2018-12-11T12:14:28.901Z,82.04
2018-12-11T12:15:34.407Z,82.32
2018-12-11T12:16:39.935Z,82.04
2018-12-11T12:17:45.429Z,82.70
2018-12-11T12:18:50.936Z,82.80
2018-12-11T12:19:56.454Z,82.57
2018-12-11T12:21:01.959Z,82.28
2018-12-11T12:22:07.461Z,82.67
2018-12-11T12:23:12.962Z,82.57
2018-12-11T12:24:18.501Z,82.67
2018-12-11T12:25:23.986Z,82.86
2018-12-11T12:26:29.494Z,83.04
2018-12-11T12:27:35.003Z,83.42
2018-12-11T12:28:40.512Z,83.47
2018-12-11T12:29:46.016Z,83.56
2018-12-11T12:30:51.524Z,82.80
2018-12-11T12:31:57.037Z,82.14
2018-12-11T12:33:02.538Z,82.14
2018-12-11T12:34:08.049Z,82.42
2018-12-11T12:35:13.558Z,82.32
2018-12-11T12:36:19.064Z,82.32
2018-12-11T12:37:24.571Z,82.90
2018-12-11T12:38:30.107Z,82.32
2018-12-11T12:39:35.588Z,82.32
2018-12-11T12:40:41.105Z,82.32
2018-12-11T12:41:46.596Z,81.66
2018-12-11T12:42:52.121Z,80.80
2018-12-11T12:43:57.632Z,80.99
2018-12-11T12:45:03.130Z,81.85
2018-12-11T12:46:08.641Z,81.66
2018-12-11T12:47:14.152Z,82.23
2018-12-11T12:48:19.658Z,82.32
2018-12-11T12:49:25.163Z,82.51
2018-12-11T12:50:30.675Z,82.32
2018-12-11T12:51:36.193Z,82.42
2018-12-11T12:52:41.687Z,82.51
2018-12-11T12:53:47.207Z,82.61
2018-12-11T12:54:52.707Z,81.56
2018-12-11T12:55:58.212Z,82.04
2018-12-11T12:57:03.720Z,81.56
2018-12-11T12:58:09.239Z,81.47
2018-12-11T12:59:14.745Z,81.85
2018-12-11T13:00:20.250Z,81.47
2018-12-11T13:01:25.753Z,82.51
2018-12-11T13:02:31.268Z,82.32
2018-12-11T13:03:36.778Z,82.23
2018-12-11T13:04:42.283Z,82.51
2018-12-11T13:05:47.792Z,81.37
2018-12-11T13:06:53.295Z,81.66
2018-12-11T13:09:48.562Z,82.32
2018-12-11T13:10:29.525Z,82.42
2018-12-11T13:11:51.560Z,82.23
2018-12-11T13:13:07.182Z,82.32
2018-12-11T13:14:08.773Z,82.42
2018-12-11T13:15:08.472Z,82.70
2018-12-11T13:16:16.467Z,82.90
2018-12-11T13:17:27.175Z,82.90
2018-12-11T13:18:38.400Z,82.42
2018-12-11T13:19:32.367Z,82.80
2018-12-11T13:20:20.301Z,82.90
2018-12-11T13:21:54.196Z,81.76
2018-12-11T13:22:34.234Z,81.85
2018-12-11T13:23:50.114Z,82.32
2018-12-11T13:25:19.105Z,82.23
2018-12-11T13:26:21.057Z,81.28
2018-12-11T13:27:30.086Z,81.18
2018-12-11T13:28:18.004Z,81.47
2018-12-11T13:29:22.110Z,81.66
2018-12-11T13:30:23.144Z,81.56
2018-12-11T13:32:02.370Z,81.95
2018-12-11T13:32:45.397Z,81.76
2018-12-11T13:34:09.764Z,81.09
2018-12-11T13:35:22.779Z,81.37
2018-12-11T13:36:35.687Z,81.56
2018-12-11T13:37:15.733Z,81.37
2018-12-11T13:38:44.611Z,81.66
2018-12-11T13:39:38.683Z,80.99
2018-12-11T13:40:36.644Z,80.71
2018-12-11T13:41:42.282Z,81.37
2018-12-11T13:42:49.562Z,81.37
2018-12-11T13:43:39.537Z,81.18
2018-12-11T13:44:55.520Z,81.28
2018-12-11T13:46:08.440Z,80.86
2018-12-11T13:46:59.431Z,81.56
2018-12-11T13:48:15.326Z,81.52
2018-12-11T13:49:23.621Z,81.62
2018-12-11T13:50:20.346Z,81.71
2018-12-11T13:51:34.183Z,82.28
2018-12-11T13:52:27.127Z,81.90
2018-12-11T13:53:34.302Z,82.19
2018-12-11T13:54:53.149Z,82.86
2018-12-11T13:56:01.146Z,82.19
2018-12-11T13:56:41.087Z,82.09
2018-12-11T13:57:53.187Z,82.38
2018-12-11T13:59:00.052Z,82.67
2018-12-11T14:00:17.054Z,82.86
2018-12-11T14:01:21.888Z,82.95
2018-12-11T14:02:21.885Z,82.67
2018-12-11T14:03:37.863Z,82.28
2018-12-11T14:04:40.842Z,82.28
2018-12-11T14:05:46.789Z,82.19